Flugwetter

METAR EDDW
2021/07/29 18:50 EDDW 291850Z 23010KT 9999 FEW048 18/11 Q1009 NOSIG
TAF EDDW
2021/07/29 18:27 TAF EDDW 291700Z 2918/3018 25013G25KT CAVOK BECMG 2918/2921 23008KT TEMPO 3008/3012 25013KT PROB30 TEMPO 3016/3018 17003KT SCT045CB
METAR EDDH
2021/07/29 18:50 EDDH 291850Z 24010KT 9999 FEW049 19/09 Q1008 TEMPO 25015G25KT
TAF EDDH
2021/07/29 18:27 TAF EDDH 291700Z 2918/3024 25013G25KT CAVOK BECMG 2918/2921 23008KT TEMPO 3009/3012 24015G25KT BECMG 3017/3019 16004KT PROB30 TEMPO 3021/3023 24013KT TSRA SCT045CB
METAR VRMM
2021/07/29 18:00 VRMM 291800Z 29008KT 9999 SCT018 BKN270 29/25 Q1013 NOSIG
TAF VRMM
2021/07/29 18:06 TAF VRMM 291700Z 2918/3024 30010KT 9999 FEW018 TEMPO 2918/2924 FEW018CB

Quelle:

Bereitgestellt von den Servern der NOAA tgftp.nws.noaa.gov
Alle Angaben ohne Gewähr